Time;durP1;ratioP1;P1;durP2;ratioP2;P2;SDS_P1;SDS_P2;PMS_P1;PMS_P2;Temp;Humidity;BMP_temperature;BMP_pressure;BME280_temperature;BME280_humidity;BME280_pressure;Samples;Min_cycle;Max_cycle;Signal;HPM_P1;HPM_P2
2022/09/10 00:00:57;;;;;;;12.17;4.07;;;19.70;91.90;;;;;;6105022;23;20239;-96
2022/09/10 00:03:25;;;;;;;9.00;3.43;;;19.70;92.10;;;;;;6107105;23;20208;-96
2022/09/10 00:05:53;;;;;;;10.53;4.17;;;19.70;92.10;;;;;;6105912;23;20178;-96
2022/09/10 00:08:37;;;;;;;8.40;3.17;;;19.70;91.80;;;;;;6105188;23;20201;-96
2022/09/10 00:11:09;;;;;;;8.37;3.53;;;19.70;92.50;;;;;;6108576;23;20177;-95
2022/09/10 00:13:44;;;;;;;11.70;3.63;;;19.70;92.40;;;;;;6112029;23;20209;-96
2022/09/10 00:16:17;;;;;;;11.73;4.20;;;19.70;92.60;;;;;;6113434;23;20177;-96
2022/09/10 00:19:00;;;;;;;7.47;3.40;;;19.70;92.50;;;;;;6115061;23;20176;-96
2022/09/10 00:21:28;;;;;;;7.77;3.40;;;19.70;92.50;;;;;;6114532;23;20204;-96
2022/09/10 00:23:58;;;;;;;7.43;3.07;;;19.80;92.10;;;;;;6117164;23;20181;-96
2022/09/10 00:26:27;;;;;;;6.00;3.00;;;19.70;92.20;;;;;;6116055;23;20178;-96
2022/09/10 00:29:14;;;;;;;7.90;3.87;;;19.70;92.10;;;;;;6117158;23;20177;-96
2022/09/10 00:34:54;;;;;;;14.53;4.80;;;19.80;92.20;;;;;;6072815;23;20193;-95
2022/09/10 00:38:02;;;;;;;12.37;4.30;;;19.80;92.50;;;;;;6112488;23;20174;-96
2022/09/10 00:40:39;;;;;;;11.57;4.23;;;19.80;92.60;;;;;;6093169;23;20264;-96
2022/09/10 00:43:13;;;;;;;8.83;4.23;;;19.80;92.50;;;;;;6088251;23;20251;-96
2022/09/10 00:49:02;;;;;;;13.33;5.07;;;19.80;92.40;;;;;;5921005;23;20244;-96
2022/09/10 00:51:39;;;;;;;5.60;3.00;;;19.80;92.10;;;;;;6112842;23;20177;-96
2022/09/10 00:54:13;;;;;;;8.07;3.80;;;19.70;92.30;;;;;;6116184;23;20262;-95
2022/09/10 00:56:42;;;;;;;7.53;3.63;;;19.70;92.40;;;;;;6087803;23;20192;-96
2022/09/10 00:59:14;;;;;;;7.13;4.13;;;19.80;92.50;;;;;;6087212;23;20185;-96
2022/09/10 01:02:04;;;;;;;7.07;3.37;;;19.70;92.50;;;;;;6080201;23;20177;-96
2022/09/10 01:04:32;;;;;;;9.07;3.87;;;19.70;92.60;;;;;;6081314;23;20189;-96
2022/09/10 01:07:06;;;;;;;10.23;4.37;;;19.70;92.10;;;;;;6072507;23;21056;-96
2022/09/10 01:09:40;;;;;;;6.87;3.33;;;19.70;92.40;;;;;;6071708;23;20175;-96
2022/09/10 01:12:36;;;;;;;12.37;5.27;;;19.70;92.50;;;;;;6072458;23;20183;-96
2022/09/10 01:18:50;;;;;;;12.70;5.30;;;19.70;92.40;;;;;;5996062;23;20195;-95
2022/09/10 01:21:45;;;;;;;10.90;4.80;;;19.70;92.40;;;;;;6070853;23;20207;-95
2022/09/10 01:24:49;;;;;;;14.90;6.00;;;19.70;92.40;;;;;;6070534;23;20185;-96
2022/09/10 01:27:48;;;;;;;9.20;4.43;;;19.70;92.50;;;;;;6052600;23;20181;-96
2022/09/10 01:30:31;;;;;;;7.60;3.93;;;19.70;92.50;;;;;;6048924;23;20198;-96
2022/09/10 01:33:05;;;;;;;10.43;4.97;;;19.70;92.30;;;;;;6071007;23;20210;-95
2022/09/10 01:36:02;;;;;;;13.33;5.00;;;19.60;92.10;;;;;;6073244;23;20524;-95
2022/09/10 01:38:32;;;;;;;8.60;4.47;;;19.60;92.20;;;;;;6072954;23;20228;-96
2022/09/10 01:41:15;;;;;;;11.80;4.80;;;19.60;92.00;;;;;;6072440;23;20182;-95
2022/09/10 01:44:05;;;;;;;10.70;4.53;;;19.60;92.20;;;;;;6073398;23;20181;-95
2022/09/10 01:46:50;;;;;;;10.07;4.90;;;19.60;92.10;;;;;;6069373;23;20198;-95
2022/09/10 01:49:28;;;;;;;12.73;5.30;;;19.60;92.10;;;;;;6072631;23;20181;-95
2022/09/10 01:52:09;;;;;;;8.90;4.67;;;19.50;92.10;;;;;;6071612;23;20266;-95
2022/09/10 01:55:04;;;;;;;10.47;5.23;;;19.50;92.20;;;;;;6069627;23;20237;-94
2022/09/10 01:57:54;;;;;;;15.77;7.33;;;19.50;92.30;;;;;;6069824;23;20269;-94
2022/09/10 02:00:49;;;;;;;10.10;5.60;;;19.50;92.20;;;;;;6071073;23;20182;-95
2022/09/10 02:03:25;;;;;;;9.00;5.20;;;19.50;92.40;;;;;;6071018;23;20170;-96
2022/09/10 02:05:54;;;;;;;12.40;6.10;;;19.50;92.40;;;;;;6070448;23;20178;-95
2022/09/10 02:08:31;;;;;;;11.30;5.33;;;19.50;92.20;;;;;;6071849;23;20181;-95
2022/09/10 02:11:10;;;;;;;13.87;6.53;;;19.50;92.40;;;;;;6071064;23;20611;-95
2022/09/10 02:13:43;;;;;;;15.97;6.33;;;19.40;92.40;;;;;;6071997;23;20237;-96
2022/09/10 02:16:16;;;;;;;12.70;5.70;;;19.40;92.40;;;;;;6071398;23;20617;-94
2022/09/10 02:18:48;;;;;;;11.93;5.63;;;19.40;92.40;;;;;;6071186;23;20174;-95
2022/09/10 02:21:16;;;;;;;9.97;5.93;;;19.30;92.50;;;;;;6073850;23;20183;-95
2022/09/10 02:23:54;;;;;;;10.53;5.40;;;19.30;92.40;;;;;;6074730;23;20230;-96
2022/09/10 02:26:29;;;;;;;10.50;5.83;;;19.30;92.70;;;;;;6073213;23;20205;-95
2022/09/10 02:29:00;;;;;;;8.67;5.23;;;19.30;92.80;;;;;;6073422;23;20488;-95
2022/09/10 02:31:31;;;;;;;9.87;5.33;;;19.30;92.70;;;;;;6073130;23;20525;-95
2022/09/10 02:34:15;;;;;;;10.10;5.27;;;19.20;92.70;;;;;;6073534;23;20209;-95
2022/09/10 02:36:43;;;;;;;9.40;5.57;;;19.20;92.80;;;;;;6073649;23;20642;-95
2022/09/10 02:39:16;;;;;;;9.10;5.60;;;19.20;92.50;;;;;;6072959;23;20237;-96
2022/09/10 02:44:42;;;;;;;15.53;6.97;;;19.20;92.90;;;;;;6072270;23;20177;-96
2022/09/10 02:47:11;;;;;;;9.50;5.53;;;19.20;92.80;;;;;;6072365;23;20206;-95
2022/09/10 02:49:44;;;;;;;13.73;7.33;;;19.10;92.70;;;;;;6071120;23;20185;-95
2022/09/10 02:52:17;;;;;;;14.53;7.17;;;19.10;92.70;;;;;;6072798;23;20177;-95
2022/09/10 02:54:51;;;;;;;14.03;6.67;;;19.10;92.60;;;;;;6072819;23;20209;-95
2022/09/10 02:57:19;;;;;;;9.53;5.43;;;19.10;92.90;;;;;;6074438;23;20177;-95
2022/09/10 03:00:09;;;;;;;12.13;6.73;;;19.10;92.80;;;;;;6073489;23;20176;-96
2022/09/10 03:02:42;;;;;;;12.53;6.47;;;19.10;93.00;;;;;;6073456;23;20224;-96
2022/09/10 03:05:15;;;;;;;9.83;6.27;;;19.10;93.10;;;;;;6071743;23;20177;-96
2022/09/10 03:07:48;;;;;;;13.63;6.20;;;19.10;93.10;;;;;;6073747;23;20168;-96
2022/09/10 03:10:18;;;;;;;17.53;8.03;;;19.00;93.10;;;;;;6073249;23;20174;-96
2022/09/10 03:12:47;;;;;;;13.57;6.83;;;19.00;93.10;;;;;;6073122;23;20518;-95
2022/09/10 03:15:22;;;;;;;12.93;7.10;;;19.00;93.20;;;;;;6072308;23;20193;-96
2022/09/10 03:17:54;;;;;;;8.40;6.17;;;19.00;93.30;;;;;;6047900;23;20209;-96
2022/09/10 03:20:25;;;;;;;11.67;6.77;;;19.00;93.30;;;;;;6072222;23;20178;-96
2022/09/10 03:22:56;;;;;;;9.67;6.67;;;19.00;93.30;;;;;;6072506;23;20859;-96
2022/09/10 03:25:31;;;;;;;14.23;7.03;;;19.00;93.30;;;;;;6072095;23;20191;-96
2022/09/10 03:27:59;;;;;;;11.60;6.63;;;19.00;93.30;;;;;;6073990;23;20183;-96
2022/09/10 03:30:32;;;;;;;7.40;6.00;;;19.00;93.20;;;;;;6072421;23;20204;-96
2022/09/10 03:33:01;;;;;;;12.63;6.90;;;18.90;93.30;;;;;;6071894;23;20201;-96
2022/09/10 03:35:51;;;;;;;11.23;5.87;;;18.90;93.20;;;;;;6072479;23;20600;-96
2022/09/10 03:38:19;;;;;;;17.53;7.10;;;18.90;93.30;;;;;;6072755;23;20175;-96
2022/09/10 03:41:07;;;;;;;15.43;7.93;;;19.00;93.30;;;;;;6073157;23;20184;-96
2022/09/10 03:43:35;;;;;;;11.87;7.40;;;18.90;93.60;;;;;;6079845;23;20176;-95
2022/09/10 03:46:05;;;;;;;15.97;7.47;;;19.00;93.30;;;;;;6079113;23;20173;-95
2022/09/10 03:48:34;;;;;;;12.37;7.13;;;19.00;93.50;;;;;;6080576;23;20181;-95
2022/09/10 03:51:04;;;;;;;15.87;7.90;;;18.90;93.40;;;;;;6078580;23;20256;-96
2022/09/10 03:53:32;;;;;;;10.40;6.27;;;18.90;93.50;;;;;;6074270;23;20211;-96
2022/09/10 03:56:19;;;;;;;9.97;6.53;;;18.90;93.40;;;;;;6075641;23;20196;-96
2022/09/10 03:58:47;;;;;;;13.93;6.77;;;18.90;93.60;;;;;;6077574;23;20503;-96
2022/09/10 04:01:16;;;;;;;13.47;6.93;;;18.90;93.30;;;;;;6079430;23;20179;-96
2022/09/10 04:03:47;;;;;;;14.57;7.20;;;18.90;93.40;;;;;;6074865;23;20177;-96
2022/09/10 04:06:32;;;;;;;13.43;6.90;;;18.90;93.70;;;;;;6081708;23;20200;-95
2022/09/10 04:09:04;;;;;;;12.83;7.40;;;18.90;93.80;;;;;;6083292;23;20188;-95
2022/09/10 04:11:32;;;;;;;12.70;7.63;;;18.90;93.80;;;;;;6086536;23;20173;-96
2022/09/10 04:14:01;;;;;;;18.53;7.90;;;18.90;93.50;;;;;;6075579;23;20295;-95
2022/09/10 04:16:30;;;;;;;12.17;6.97;;;18.80;93.70;;;;;;6070330;23;20180;-96
2022/09/10 04:19:03;;;;;;;15.17;7.27;;;18.90;93.70;;;;;;6080501;23;20180;-96
2022/09/10 04:21:33;;;;;;;15.07;7.23;;;18.90;94.00;;;;;;6084956;23;20180;-96
2022/09/10 04:24:01;;;;;;;14.67;7.07;;;18.90;93.90;;;;;;6085360;23;20204;-96
2022/09/10 04:26:31;;;;;;;13.43;7.30;;;18.90;93.90;;;;;;6081212;23;20181;-96
2022/09/10 04:29:13;;;;;;;15.17;7.33;;;18.80;94.00;;;;;;6069702;23;20186;-96
2022/09/10 04:31:42;;;;;;;17.17;7.10;;;18.90;94.30;;;;;;6070458;23;20177;-96
2022/09/10 04:34:16;;;;;;;15.73;8.17;;;18.80;94.00;;;;;;6070411;23;20599;-95
2022/09/10 04:36:53;;;;;;;15.10;7.07;;;18.80;94.70;;;;;;6071059;23;20577;-96
2022/09/10 04:39:31;;;;;;;19.83;7.17;;;18.90;94.30;;;;;;6071237;23;20177;-96
2022/09/10 04:41:59;;;;;;;16.30;7.07;;;18.90;94.50;;;;;;6071457;23;20180;-95
2022/09/10 04:44:30;;;;;;;11.13;6.83;;;18.80;94.20;;;;;;6071150;23;20177;-95
2022/09/10 04:47:05;;;;;;;14.10;7.80;;;18.80;94.50;;;;;;6070449;23;20638;-96
2022/09/10 04:49:42;;;;;;;13.00;6.63;;;18.90;94.40;;;;;;6071690;23;20188;-96
2022/09/10 04:52:21;;;;;;;11.97;7.43;;;18.90;94.50;;;;;;6073643;23;20189;-95
2022/09/10 04:54:49;;;;;;;12.83;7.23;;;18.90;94.60;;;;;;6071770;23;20212;-96
2022/09/10 04:57:18;;;;;;;16.57;7.83;;;18.90;94.40;;;;;;6071238;23;20519;-96
2022/09/10 04:59:45;;;;;;;15.93;7.50;;;18.90;94.40;;;;;;6072028;23;20189;-95
2022/09/10 05:05:12;;;;;;;12.80;7.03;;;18.90;94.80;;;;;;6069752;23;20189;-95
2022/09/10 05:07:40;;;;;;;14.87;6.80;;;19.00;94.80;;;;;;6069260;23;20171;-95
2022/09/10 05:10:09;;;;;;;13.13;7.67;;;18.90;94.50;;;;;;6071152;23;20188;-95
2022/09/10 05:12:41;;;;;;;12.47;7.10;;;19.00;94.50;;;;;;6047560;23;20215;-96
2022/09/10 05:15:13;;;;;;;14.30;7.20;;;19.00;95.20;;;;;;6071662;23;20205;-95
2022/09/10 05:17:41;;;;;;;12.37;6.73;;;19.00;94.70;;;;;;6071157;23;20178;-96
2022/09/10 05:20:16;;;;;;;12.23;6.90;;;19.00;94.60;;;;;;6073410;23;20181;-96
2022/09/10 05:22:48;;;;;;;18.77;8.47;;;19.00;94.90;;;;;;6072780;23;20177;-95
2022/09/10 05:25:20;;;;;;;17.10;8.50;;;19.00;94.80;;;;;;6077553;23;20178;-96
2022/09/10 05:27:50;;;;;;;16.47;8.17;;;19.00;94.90;;;;;;6075333;23;20178;-96
2022/09/10 05:30:17;;;;;;;15.53;7.77;;;19.10;94.70;;;;;;6075054;23;20181;-96
2022/09/10 05:32:53;;;;;;;11.27;7.03;;;19.10;94.60;;;;;;6076421;23;20181;-95
2022/09/10 05:35:37;;;;;;;20.30;8.63;;;19.10;94.80;;;;;;6076755;23;20207;-95
2022/09/10 05:38:14;;;;;;;10.60;7.10;;;19.10;94.90;;;;;;6069810;23;20179;-96
2022/09/10 05:40:43;;;;;;;12.10;6.30;;;19.20;94.80;;;;;;6071656;23;20179;-96
2022/09/10 05:43:11;;;;;;;12.53;6.80;;;19.20;94.60;;;;;;6072273;23;20177;-95
2022/09/10 05:45:45;;;;;;;10.03;5.97;;;19.20;94.60;;;;;;6071540;23;20198;-95
2022/09/10 05:48:19;;;;;;;11.67;5.67;;;19.20;94.80;;;;;;6071716;23;20196;-95
2022/09/10 05:50:54;;;;;;;19.20;7.13;;;19.20;94.80;;;;;;6070700;23;20181;-95
2022/09/10 05:53:21;;;;;;;14.50;6.73;;;19.20;94.80;;;;;;6071443;23;20196;-96
2022/09/10 05:55:52;;;;;;;12.87;6.00;;;19.20;94.60;;;;;;6069798;23;20217;-95
2022/09/10 05:58:20;;;;;;;17.43;6.83;;;19.20;94.80;;;;;;6071566;23;20185;-96
2022/09/10 06:00:50;;;;;;;16.77;7.20;;;19.30;94.70;;;;;;6070999;23;20287;-95
2022/09/10 06:03:18;;;;;;;11.90;6.07;;;19.30;94.90;;;;;;6070517;23;20237;-94
2022/09/10 06:05:51;;;;;;;13.27;5.23;;;19.30;94.70;;;;;;6071013;23;20546;-95
2022/09/10 06:08:20;;;;;;;8.13;4.60;;;19.30;95.00;;;;;;6046875;23;20182;-95
2022/09/10 06:10:59;;;;;;;14.70;4.90;;;19.40;94.90;;;;;;6072786;23;20409;-95
2022/09/10 06:13:32;;;;;;;13.40;5.83;;;19.40;95.10;;;;;;6073047;23;20195;-95
2022/09/10 06:16:06;;;;;;;14.30;6.03;;;19.40;95.10;;;;;;6048173;23;20206;-95
2022/09/10 06:18:49;;;;;;;13.23;4.90;;;19.40;95.00;;;;;;6073785;23;20442;-95
2022/09/10 06:21:23;;;;;;;11.40;4.50;;;19.40;95.10;;;;;;6069604;23;20197;-94
2022/09/10 06:23:55;;;;;;;15.00;5.20;;;19.40;95.10;;;;;;6073119;23;20181;-95
2022/09/10 06:26:23;;;;;;;8.90;4.70;;;19.50;95.00;;;;;;6073998;23;20516;-95
2022/09/10 06:28:55;;;;;;;11.70;4.40;;;19.50;94.90;;;;;;6075130;23;20175;-95
2022/09/10 06:31:25;;;;;;;16.80;4.53;;;19.50;95.10;;;;;;6074569;23;20175;-95
2022/09/10 06:33:53;;;;;;;11.30;3.67;;;19.50;95.10;;;;;;6074624;23;20242;-94
2022/09/10 06:36:27;;;;;;;10.40;3.53;;;19.50;95.10;;;;;;6074219;23;20441;-95
2022/09/10 06:39:00;;;;;;;7.97;3.27;;;19.50;95.40;;;;;;6072791;23;20173;-96
2022/09/10 06:41:30;;;;;;;9.77;3.53;;;19.50;95.30;;;;;;6072921;23;20189;-93
2022/09/10 06:43:59;;;;;;;9.93;3.73;;;19.50;95.30;;;;;;6073354;23;20176;-95
2022/09/10 06:46:29;;;;;;;10.20;3.83;;;19.60;95.20;;;;;;6073064;23;20175;-95
2022/09/10 06:52:18;;;;;;;8.10;3.03;;;19.60;95.50;;;;;;6073733;23;20175;-95
2022/09/10 06:54:55;;;;;;;11.33;4.00;;;19.60;95.70;;;;;;6082280;23;20206;-96
2022/09/10 06:57:28;;;;;;;13.60;4.70;;;19.70;95.30;;;;;;6086069;23;20178;-96
2022/09/10 06:59:55;;;;;;;9.40;3.73;;;19.70;95.70;;;;;;6084880;23;20177;-96
2022/09/10 07:02:29;;;;;;;18.50;6.53;;;19.70;95.60;;;;;;6060034;23;20186;-95
2022/09/10 07:04:57;;;;;;;12.70;4.17;;;19.70;95.70;;;;;;6086172;23;20173;-95
2022/09/10 07:07:27;;;;;;;9.50;3.23;;;19.80;95.70;;;;;;6090554;23;20201;-96
2022/09/10 07:10:02;;;;;;;10.17;3.20;;;19.80;96.00;;;;;;6088809;23;20162;-95
2022/09/10 07:12:36;;;;;;;9.53;3.50;;;19.80;96.00;;;;;;6090640;23;20267;-95
2022/09/10 07:15:19;;;;;;;9.70;3.50;;;19.90;96.30;;;;;;6089131;23;20218;-96
2022/09/10 07:18:13;;;;;;;10.27;3.83;;;19.90;96.50;;;;;;6077869;23;20183;-96
2022/09/10 07:20:53;;;;;;;6.77;3.13;;;20.00;96.70;;;;;;6085236;23;20195;-96
2022/09/10 07:23:30;;;;;;;10.17;3.53;;;20.00;96.60;;;;;;6090876;23;20180;-95
2022/09/10 07:28:51;;;;;;;11.80;4.53;;;20.20;96.80;;;;;;6087971;23;20183;-96
2022/09/10 07:31:47;;;;;;;8.63;3.10;;;20.20;96.40;;;;;;6090321;23;20175;-96
2022/09/10 07:34:42;;;;;;;7.60;2.93;;;20.30;96.70;;;;;;6089389;23;20175;-95
2022/09/10 07:40:27;;;;;;;8.03;3.60;;;20.40;96.30;;;;;;6090921;23;20182;-96
2022/09/10 07:43:01;;;;;;;7.37;3.27;;;20.40;96.10;;;;;;6091881;23;20164;-95
2022/09/10 07:45:32;;;;;;;9.67;3.93;;;20.50;96.10;;;;;;6093662;23;20166;-95
2022/09/10 07:48:01;;;;;;;14.47;4.97;;;20.50;95.90;;;;;;6091326;23;20189;-96
2022/09/10 07:51:03;;;;;;;10.77;4.03;;;20.60;95.80;;;;;;6090328;23;20190;-95
2022/09/10 07:53:35;;;;;;;13.17;5.13;;;20.60;95.90;;;;;;6088858;23;20172;-95
2022/09/10 07:56:43;;;;;;;11.30;4.33;;;20.70;95.90;;;;;;6082234;23;20202;-95
2022/09/10 07:59:21;;;;;;;10.20;3.83;;;20.70;95.70;;;;;;6082583;23;20183;-94
2022/09/10 08:02:28;;;;;;;12.40;4.83;;;20.80;95.30;;;;;;6059603;23;20653;-95
2022/09/10 08:05:27;;;;;;;6.77;2.83;;;20.80;95.00;;;;;;6083703;23;20187;-95
2022/09/10 08:08:20;;;;;;;7.73;3.40;;;20.80;94.20;;;;;;6082855;23;20187;-95
2022/09/10 08:10:48;;;;;;;10.10;3.90;;;20.90;94.80;;;;;;6081039;23;20201;-92
2022/09/10 08:13:18;;;;;;;14.60;4.87;;;20.90;94.70;;;;;;6074476;23;20633;-94
2022/09/10 08:15:47;;;;;;;10.00;3.60;;;20.90;94.80;;;;;;6073993;23;20284;-93
2022/09/10 08:18:16;;;;;;;11.93;3.87;;;21.00;94.50;;;;;;6076621;23;20195;-92
2022/09/10 08:20:53;;;;;;;8.67;3.67;;;21.00;94.60;;;;;;6075010;23;20231;-94
2022/09/10 08:23:21;;;;;;;11.10;4.20;;;21.10;94.20;;;;;;6073142;23;20186;-93
2022/09/10 08:25:51;;;;;;;11.63;4.60;;;21.10;94.30;;;;;;6071817;23;20206;-93
2022/09/10 08:28:20;;;;;;;10.30;4.07;;;21.20;94.30;;;;;;6069056;23;20181;-94
2022/09/10 08:30:56;;;;;;;11.47;4.07;;;21.20;93.60;;;;;;6069411;23;20178;-92
2022/09/10 08:33:30;;;;;;;8.93;3.60;;;21.20;92.70;;;;;;6070984;23;20669;-94
2022/09/10 08:35:58;;;;;;;7.10;3.73;;;21.30;93.10;;;;;;6073555;23;20207;-94
2022/09/10 08:38:26;;;;;;;10.97;4.33;;;21.30;93.60;;;;;;6072809;23;20175;-91
2022/09/10 08:40:55;;;;;;;8.67;3.20;;;21.40;93.10;;;;;;6072323;23;20246;-96
2022/09/10 08:43:33;;;;;;;11.57;4.80;;;21.40;93.00;;;;;;6070050;23;20176;-94
2022/09/10 08:46:05;;;;;;;10.47;4.50;;;21.40;92.70;;;;;;6070812;23;20178;-95
2022/09/10 08:48:39;;;;;;;10.13;4.33;;;21.50;92.40;;;;;;6070671;23;20180;-94
2022/09/10 08:51:14;;;;;;;14.07;5.20;;;21.50;92.90;;;;;;6070662;23;20175;-95
2022/09/10 08:54:03;;;;;;;10.90;4.33;;;21.60;91.70;;;;;;6069203;23;20202;-96
2022/09/10 08:56:33;;;;;;;6.87;3.67;;;21.60;92.30;;;;;;6071835;23;20199;-95
2022/09/10 08:59:18;;;;;;;9.90;3.43;;;21.60;93.40;;;;;;6070514;23;20186;-93
2022/09/10 09:01:51;;;;;;;8.43;3.83;;;21.70;93.10;;;;;;6070852;23;20180;-96
2022/09/10 09:04:26;;;;;;;11.47;4.73;;;21.80;93.10;;;;;;6069791;23;20179;-95
2022/09/10 09:06:58;;;;;;;12.20;5.67;;;21.90;93.60;;;;;;6070937;23;20171;-94
2022/09/10 09:09:26;;;;;;;18.97;6.67;;;22.00;93.10;;;;;;6071319;23;20203;-95
2022/09/10 09:12:02;;;;;;;8.30;4.13;;;22.10;93.30;;;;;;6071991;23;20204;-93
2022/09/10 09:14:48;;;;;;;11.63;4.37;;;22.20;93.30;;;;;;6071145;23;20653;-93
2022/09/10 09:17:31;;;;;;;9.63;4.20;;;22.40;92.00;;;;;;6072000;23;20179;-94
2022/09/10 09:20:14;;;;;;;12.50;4.73;;;22.50;91.00;;;;;;6071065;23;20183;-96
2022/09/10 09:22:50;;;;;;;9.57;4.07;;;22.70;92.80;;;;;;6071287;23;20235;-96
2022/09/10 09:25:31;;;;;;;9.00;3.97;;;22.80;91.40;;;;;;6071853;23;20180;-96
2022/09/10 09:27:59;;;;;;;9.37;3.40;;;22.90;90.30;;;;;;6073747;23;20175;-96
2022/09/10 09:30:52;;;;;;;9.90;4.00;;;23.10;90.90;;;;;;6074490;23;20185;-96
2022/09/10 09:33:23;;;;;;;11.97;4.20;;;23.30;88.10;;;;;;6072046;23;20183;-93
2022/09/10 09:35:54;;;;;;;10.13;4.33;;;23.40;89.20;;;;;;6071055;23;21071;-95
2022/09/10 09:38:28;;;;;;;10.77;4.20;;;23.40;87.30;;;;;;6070395;23;20168;-95
2022/09/10 09:41:05;;;;;;;11.67;4.67;;;23.50;86.10;;;;;;6073512;23;20172;-96
2022/09/10 09:43:41;;;;;;;13.90;5.23;;;23.60;84.40;;;;;;6077805;23;20175;-95
2022/09/10 09:49:00;;;;;;;8.30;3.60;;;23.60;84.60;;;;;;6055840;23;20175;-96
2022/09/10 09:51:57;;;;;;;15.83;5.40;;;23.60;83.30;;;;;;6073746;23;20173;-96
2022/09/10 09:55:01;;;;;;;13.33;4.97;;;23.50;82.00;;;;;;5961504;24;20206;-96
2022/09/10 09:57:29;;;;;;;11.70;5.27;;;23.50;82.80;;;;;;6075041;23;20239;-96
2022/09/10 10:03:29;;;;;;;9.60;3.90;;;23.40;83.50;;;;;;6068628;23;20186;-96
2022/09/10 10:06:02;;;;;;;11.73;4.63;;;23.40;82.50;;;;;;6068163;23;20196;-93
2022/09/10 10:08:38;;;;;;;10.23;3.93;;;23.30;81.20;;;;;;6075100;23;20181;-94
2022/09/10 10:11:09;;;;;;;10.07;3.93;;;23.30;81.90;;;;;;6076002;23;20171;-96
2022/09/10 10:13:43;;;;;;;13.17;5.27;;;23.30;83.30;;;;;;6077038;23;20176;-96
2022/09/10 10:16:18;;;;;;;13.73;5.13;;;23.20;81.70;;;;;;6075824;23;20200;-96
2022/09/10 10:18:51;;;;;;;8.37;3.33;;;23.20;82.70;;;;;;6079443;23;20210;-94
2022/09/10 10:21:35;;;;;;;14.60;5.87;;;23.10;83.00;;;;;;6077656;23;20179;-96
2022/09/10 10:24:32;;;;;;;17.53;5.30;;;23.10;82.90;;;;;;6074439;23;20199;-95
2022/09/10 10:27:26;;;;;;;10.87;4.20;;;23.00;82.40;;;;;;6078468;23;20204;-95
2022/09/10 10:30:06;;;;;;;14.53;5.13;;;23.00;82.70;;;;;;6057936;23;20560;-96
2022/09/10 10:32:43;;;;;;;11.47;4.37;;;23.00;83.20;;;;;;6072881;23;20175;-94
2022/09/10 10:35:31;;;;;;;8.67;3.87;;;22.90;83.10;;;;;;6073689;23;20198;-95
2022/09/10 10:38:26;;;;;;;8.03;3.53;;;22.90;84.50;;;;;;6079494;23;20176;-96
2022/09/10 10:41:06;;;;;;;8.40;2.90;;;22.90;83.70;;;;;;6076816;23;20175;-95
2022/09/10 10:43:43;;;;;;;11.67;4.93;;;23.00;83.40;;;;;;6073771;23;20182;-94
2022/09/10 10:46:20;;;;;;;10.30;4.37;;;23.00;84.30;;;;;;6072897;23;20190;-95
2022/09/10 10:49:09;;;;;;;8.77;3.93;;;23.00;84.40;;;;;;6074443;23;20258;-96
2022/09/10 10:51:49;;;;;;;8.40;3.77;;;23.00;85.60;;;;;;6080680;23;20176;-95
2022/09/10 10:54:48;;;;;;;15.47;5.80;;;23.10;85.70;;;;;;6083403;23;20650;-96
2022/09/10 11:03:22;;;;;;;12.43;4.67;;;23.30;82.20;;;;;;5986310;23;20231;-94
2022/09/10 11:05:59;;;;;;;11.90;4.40;;;23.30;82.40;;;;;;6058242;23;20168;-96
2022/09/10 11:08:49;;;;;;;12.53;4.63;;;23.40;83.40;;;;;;6059914;23;20201;-95
2022/09/10 11:11:21;;;;;;;8.03;3.83;;;23.40;84.40;;;;;;6062262;23;20206;-95
2022/09/10 11:13:58;;;;;;;8.73;3.73;;;23.50;85.20;;;;;;6054753;23;20222;-93
2022/09/10 11:16:40;;;;;;;8.17;4.47;;;23.60;84.10;;;;;;6048548;23;20211;-95
2022/09/10 11:19:20;;;;;;;10.53;4.17;;;23.70;86.40;;;;;;6047806;23;20241;-95
2022/09/10 11:21:55;;;;;;;12.00;5.13;;;23.80;83.90;;;;;;6047874;23;20521;-93
2022/09/10 11:24:32;;;;;;;6.37;3.23;;;23.90;85.10;;;;;;6047543;23;20523;-96
2022/09/10 11:27:06;;;;;;;7.10;3.83;;;24.00;83.00;;;;;;6049038;23;20186;-95
2022/09/10 11:30:03;;;;;;;9.80;3.97;;;24.10;81.90;;;;;;6054002;23;20211;-94
2022/09/10 11:32:53;;;;;;;10.60;4.23;;;24.30;82.20;;;;;;6051523;23;20179;-95
2022/09/10 11:35:25;;;;;;;9.07;4.07;;;24.40;82.10;;;;;;6050686;23;20195;-95
2022/09/10 11:38:06;;;;;;;11.60;4.00;;;24.60;81.00;;;;;;6051294;23;20183;-95
2022/09/10 11:40:50;;;;;;;8.77;4.40;;;24.70;80.00;;;;;;6048810;23;20172;-93
2022/09/10 11:43:29;;;;;;;8.37;3.83;;;24.80;78.50;;;;;;6046168;23;20179;-94
2022/09/10 11:46:03;;;;;;;9.00;4.20;;;24.90;77.90;;;;;;6044425;23;20179;-93
2022/09/10 11:48:47;;;;;;;9.90;4.47;;;25.00;77.30;;;;;;6044659;23;20259;-96
2022/09/10 11:51:21;;;;;;;9.00;4.53;;;25.10;75.80;;;;;;6043443;23;20219;-95
2022/09/10 11:53:51;;;;;;;8.80;4.00;;;25.10;75.00;;;;;;6067003;23;20195;-95
2022/09/10 11:56:51;;;;;;;5.10;2.63;;;25.20;76.60;;;;;;6073900;23;20258;-95
2022/09/10 11:59:51;;;;;;;4.63;3.10;;;25.20;74.30;;;;;;6054995;23;20195;-95
2022/09/10 12:03:04;;;;;;;12.27;4.70;;;25.20;74.70;;;;;;6077890;23;20870;-95
2022/09/10 12:05:39;;;;;;;11.00;4.47;;;25.30;74.60;;;;;;6037842;23;20180;-95
2022/09/10 12:08:17;;;;;;;13.30;5.43;;;25.40;75.90;;;;;;6081182;23;20195;-94
2022/09/10 12:10:55;;;;;;;8.93;3.77;;;25.40;76.00;;;;;;6079368;23;20175;-94
2022/09/10 12:13:27;;;;;;;10.97;4.33;;;25.50;74.50;;;;;;6076189;23;20171;-94
2022/09/10 12:16:14;;;;;;;11.57;5.27;;;25.50;75.60;;;;;;6074273;23;20199;-95
2022/09/10 12:18:54;;;;;;;9.67;4.20;;;25.60;75.00;;;;;;6071638;23;20183;-94
2022/09/10 12:21:50;;;;;;;11.77;3.93;;;25.60;75.20;;;;;;6071309;23;20252;-93
2022/09/10 12:24:31;;;;;;;5.87;3.37;;;25.70;74.50;;;;;;6070966;23;20183;-92
2022/09/10 12:27:06;;;;;;;11.23;4.20;;;25.70;74.00;;;;;;6072404;23;20186;-94
2022/09/10 12:29:39;;;;;;;10.07;4.00;;;25.80;73.40;;;;;;6069924;23;20558;-92
2022/09/10 12:32:32;;;;;;;11.77;4.33;;;25.80;72.90;;;;;;6071518;23;20176;-92
2022/09/10 12:35:36;;;;;;;10.00;4.07;;;25.90;71.40;;;;;;6070881;23;20564;-94
2022/09/10 12:38:47;;;;;;;10.70;5.07;;;25.80;71.00;;;;;;6068680;23;20220;-93
2022/09/10 12:41:49;;;;;;;13.47;4.67;;;25.70;69.10;;;;;;6071663;23;20179;-93
2022/09/10 12:44:55;;;;;;;7.77;2.97;;;25.60;69.00;;;;;;6075598;23;20241;-94
2022/09/10 12:47:55;;;;;;;9.73;3.97;;;25.50;69.50;;;;;;6080465;23;20183;-93
2022/09/10 12:51:14;;;;;;;8.60;4.17;;;25.40;70.20;;;;;;5970504;24;20186;-95
2022/09/10 12:54:19;;;;;;;7.40;3.63;;;25.30;72.10;;;;;;5972556;24;20198;-94
2022/09/10 12:57:22;;;;;;;9.87;4.00;;;25.20;72.40;;;;;;5889847;24;21238;-96
2022/09/10 13:03:17;;;;;;;9.70;4.07;;;25.00;72.40;;;;;;6078765;23;20202;-96
2022/09/10 13:06:18;;;;;;;11.43;4.23;;;24.90;73.10;;;;;;6076886;23;20570;-94
2022/09/10 13:08:49;;;;;;;9.93;3.50;;;24.80;73.50;;;;;;6078998;23;20178;-96
2022/09/10 13:11:21;;;;;;;9.23;3.47;;;24.70;73.70;;;;;;6078049;23;20177;-96
2022/09/10 13:13:58;;;;;;;10.47;3.90;;;24.60;74.50;;;;;;6076605;23;20186;-94
2022/09/10 13:16:39;;;;;;;9.73;4.73;;;24.50;74.90;;;;;;6071166;23;20203;-96
2022/09/10 13:19:43;;;;;;;9.20;4.17;;;24.40;74.30;;;;;;6072396;23;20626;-92
2022/09/10 13:22:54;;;;;;;8.57;4.13;;;24.40;74.90;;;;;;6073285;23;20202;-94
2022/09/10 13:25:30;;;;;;;10.63;4.83;;;24.30;75.50;;;;;;6071378;23;20178;-94
2022/09/10 13:27:59;;;;;;;8.37;4.30;;;24.30;77.50;;;;;;6070824;23;20738;-91
2022/09/10 13:30:29;;;;;;;13.23;5.60;;;24.20;79.40;;;;;;6077787;23;20174;-94
2022/09/10 13:33:07;;;;;;;9.37;4.60;;;24.30;80.20;;;;;;6077464;23;20178;-93
2022/09/10 13:36:09;;;;;;;13.43;4.37;;;24.20;80.50;;;;;;6077917;23;20183;-95
2022/09/10 13:39:07;;;;;;;8.30;4.90;;;24.40;81.50;;;;;;6076079;23;20185;-93
2022/09/10 13:42:21;;;;;;;13.20;5.53;;;24.50;79.10;;;;;;6077611;23;20687;-95
2022/09/10 13:45:25;;;;;;;14.40;5.50;;;24.60;78.30;;;;;;6025822;23;20230;-94
2022/09/10 13:48:01;;;;;;;12.40;5.30;;;24.60;77.80;;;;;;6046070;23;20183;-95
2022/09/10 13:50:36;;;;;;;8.47;4.80;;;24.70;78.10;;;;;;6047707;23;20672;-96
2022/09/10 13:53:10;;;;;;;8.47;4.10;;;24.80;78.50;;;;;;6075339;23;20191;-93
2022/09/10 13:55:50;;;;;;;12.10;5.37;;;24.80;78.70;;;;;;6069532;23;20242;-96
2022/09/10 14:04:25;;;;;;;14.00;5.63;;;24.80;77.50;;;;;;6072475;23;20189;-95
2022/09/10 14:07:11;;;;;;;13.03;5.90;;;24.80;76.70;;;;;;6075708;23;20178;-96
2022/09/10 14:09:45;;;;;;;16.20;6.30;;;24.80;76.60;;;;;;6051695;23;20182;-95
2022/09/10 14:12:47;;;;;;;18.70;6.07;;;24.80;76.40;;;;;;6075228;23;20168;-96
2022/09/10 14:15:54;;;;;;;;;;;;;;;;;;;;;
2022/09/10 14:18:31;;;;;;;11.20;5.77;;;24.70;78.20;;;;;;6073489;23;20182;-96
2022/09/10 14:21:00;;;;;;;11.27;5.37;;;24.60;78.30;;;;;;6074638;23;20182;-95
2022/09/10 14:23:32;;;;;;;8.77;5.10;;;24.60;78.70;;;;;;6075637;23;20187;-95